This is the latest recevied weather packets stored in our database for station/object OK2ZI. If no packets are shown the sender has not sent any weather packets the latest 10 day(s).
| Time | Temp. | Humidity | Pressure | Rain* | Wind** | Luminosity | Snow |
|---|---|---|---|---|---|---|---|
| 1777459565 | 11.67° C | 33% | 1021 hPa | 0 mm | - | - | - |
| 1777459087 | 11.11° C | 34% | 1021 hPa | 0 mm | - | - | - |
| 1777457288 | 11.67° C | 32% | 1021 hPa | 0 mm | - | - | - |
| 1777456820 | 11.11° C | 35% | 1021 hPa | 0 mm | - | - | - |
| 1777454887 | 11.11° C | 34% | 1021 hPa | 0 mm | - | - | - |
| 1777454292 | 10° C | 36% | 1021 hPa | 0 mm | - | - | - |
| 1777454173 | 10.56° C | 35% | 1021 hPa | 0 mm | - | - | - |
| 1777453447 | 10.56° C | 38% | 1021 hPa | 0 mm | - | - | - |
| 1777453220 | 10° C | 38% | 1021 hPa | 0 mm | - | - | - |
| 1777452367 | 9.44° C | 40% | 1021 hPa | 0 mm | - | - | - |
| 1777452016 | 9.44° C | 37% | 1021 hPa | 0 mm | - | - | - |
| 1777451649 | 10° C | 36% | 1021 hPa | 0 mm | - | - | - |
| 1777451577 | 9.44° C | 39% | 1021 hPa | 0 mm | - | - | - |
| 1777449245 | 9.44° C | 39% | 1021 hPa | 0 mm | - | - | - |
| 1777448413 | 8.89° C | 37% | 1021 hPa | 0 mm | - | - | - |
| 1777447447 | 8.89° C | 37% | 1021 hPa | 0 mm | - | - | - |
| 1777447330 | 8.89° C | 38% | 1021 hPa | 0 mm | - | - | - |
| 1777446612 | 8.89° C | 36% | 1021 hPa | 0 mm | - | - | - |
| 1777446367 | 8.89° C | 36% | 1021 hPa | 0 mm | - | - | - |
| 1777445647 | 8.33° C | 39% | 1021 hPa | 0 mm | - | - | - |
| 1777445169 | 7.78° C | 40% | 1021 hPa | 0 mm | - | - | - |
| 1777443967 | 7.78° C | 42% | 1021 hPa | 0 mm | - | - | - |
| 1777443727 | 7.78° C | 41% | 1021 hPa | 0 mm | - | - | - |
| 1777443247 | 6.67° C | 43% | 1021 hPa | 0 mm | - | - | - |
| 1777442887 | 6.11° C | 47% | 1021 hPa | 0 mm | - | - | - |
* Rain latest hour (hover to see other rain measurements)
** Current wind speed in m/s (hover to see current wind gust speed)